Portada
METAR-TAF:

METAR-TAF

Aeropuertos :

Aeropuerto Capitán Av. Selin Zeitun Lopez

Riberalta, Bolivia

latitud: 11-00S, longitud: 066-07W, altitud: 141 m

Observación

El informe se hizo hace 1 hora y 44 minutos, a las 22:00 UTC
Viento calma
Temperatura 28°C
Humedad 84%
Presión 1009 hPa
Visibilidad: 8000 m
Nubes dispersas a una altura de 1500 ft
Escasas nubes a una altura de 2000 ft, Cumulonimbus.
Cielo nuboso a una altura de 20000 ft
chaparrones en las proximidades

METAR: SLRI 142200Z 00000KT 8000 VCSH SCT015 FEW020CB BKN200 28/25 Q1009

Hora: 19:44 (23:44 UTC)


TAF: falta

Observaciones y pronósticos meteorológicos de más de 4000 aeropuertos (mensajes METAR y TAF).

Los puntos amarillos y rojos representan las estaciones disponibles.

Ponga el ratón en el punto deseado para ver el nombre de la estación.

Haga clic para ver las observaciones y los pronósticos meteorológicos.

Para cambiar el mapa : haga clic en los botones verdes con una cruz de color negro para hacer un zoom, en el botón verde con un guión para alejar o en las flechas verdes para mapas adyacentes.


METAR-TAF: